sensor_id;sensor_type;location;lat;lon;timestamp;P1;durP1;ratioP1;P2;durP2;ratioP2
39020;SDS011;25188;51.958;5.842;2023-07-13T00:02:21;6.65;;;0.98;;
39020;SDS011;25188;51.958;5.842;2023-07-13T00:04:47;9.80;;;1.17;;
39020;SDS011;25188;51.958;5.842;2023-07-13T00:07:12;6.32;;;0.95;;
39020;SDS011;25188;51.958;5.842;2023-07-13T00:09:40;3.80;;;0.77;;
39020;SDS011;25188;51.958;5.842;2023-07-13T00:12:19;10.13;;;2.00;;
39020;SDS011;25188;51.958;5.842;2023-07-13T00:14:49;6.25;;;1.15;;
39020;SDS011;25188;51.958;5.842;2023-07-13T00:17:15;5.68;;;0.98;;
39020;SDS011;25188;51.958;5.842;2023-07-13T00:19:40;7.53;;;0.88;;
39020;SDS011;25188;51.958;5.842;2023-07-13T00:22:06;5.88;;;1.10;;
39020;SDS011;25188;51.958;5.842;2023-07-13T00:24:32;9.80;;;1.25;;
39020;SDS011;25188;51.958;5.842;2023-07-13T00:26:57;6.75;;;0.98;;
39020;SDS011;25188;51.958;5.842;2023-07-13T00:29:25;6.60;;;1.10;;
39020;SDS011;25188;51.958;5.842;2023-07-13T00:31:51;7.70;;;0.90;;
39020;SDS011;25188;51.958;5.842;2023-07-13T00:34:16;5.78;;;0.90;;
39020;SDS011;25188;51.958;5.842;2023-07-13T00:36:42;4.28;;;1.00;;
39020;SDS011;25188;51.958;5.842;2023-07-13T00:39:07;8.63;;;1.10;;
39020;SDS011;25188;51.958;5.842;2023-07-13T00:41:33;9.30;;;1.30;;
39020;SDS011;25188;51.958;5.842;2023-07-13T00:43:59;4.18;;;0.90;;
39020;SDS011;25188;51.958;5.842;2023-07-13T00:46:27;7.72;;;1.58;;
39020;SDS011;25188;51.958;5.842;2023-07-13T00:48:57;4.90;;;0.77;;
39020;SDS011;25188;51.958;5.842;2023-07-13T00:51:37;8.02;;;1.33;;
39020;SDS011;25188;51.958;5.842;2023-07-13T00:54:35;11.10;;;0.90;;
39020;SDS011;25188;51.958;5.842;2023-07-13T00:57:05;3.50;;;0.80;;
39020;SDS011;25188;51.958;5.842;2023-07-13T00:59:34;6.50;;;1.40;;
39020;SDS011;25188;51.958;5.842;2023-07-13T01:02:01;5.18;;;1.00;;
39020;SDS011;25188;51.958;5.842;2023-07-13T01:04:27;8.18;;;1.58;;
39020;SDS011;25188;51.958;5.842;2023-07-13T01:06:53;5.30;;;0.75;;
39020;SDS011;25188;51.958;5.842;2023-07-13T01:09:19;7.00;;;1.10;;
39020;SDS011;25188;51.958;5.842;2023-07-13T01:11:45;7.65;;;0.80;;
39020;SDS011;25188;51.958;5.842;2023-07-13T01:14:11;6.88;;;1.13;;
39020;SDS011;25188;51.958;5.842;2023-07-13T01:16:37;6.30;;;1.08;;
39020;SDS011;25188;51.958;5.842;2023-07-13T01:19:07;3.05;;;0.60;;
39020;SDS011;25188;51.958;5.842;2023-07-13T01:21:43;5.82;;;0.90;;
39020;SDS011;25188;51.958;5.842;2023-07-13T01:24:14;6.28;;;0.93;;
39020;SDS011;25188;51.958;5.842;2023-07-13T01:26:40;5.68;;;0.85;;
39020;SDS011;25188;51.958;5.842;2023-07-13T01:29:05;5.30;;;1.00;;
39020;SDS011;25188;51.958;5.842;2023-07-13T01:31:32;5.57;;;1.02;;
39020;SDS011;25188;51.958;5.842;2023-07-13T01:33:58;9.25;;;0.90;;
39020;SDS011;25188;51.958;5.842;2023-07-13T01:36:24;4.55;;;0.88;;
39020;SDS011;25188;51.958;5.842;2023-07-13T01:38:49;6.32;;;1.02;;
39020;SDS011;25188;51.958;5.842;2023-07-13T01:41:15;5.30;;;0.90;;
39020;SDS011;25188;51.958;5.842;2023-07-13T01:43:41;7.43;;;0.93;;
39020;SDS011;25188;51.958;5.842;2023-07-13T01:46:07;4.60;;;0.98;;
39020;SDS011;25188;51.958;5.842;2023-07-13T01:48:33;3.55;;;0.88;;
39020;SDS011;25188;51.958;5.842;2023-07-13T01:50:58;5.85;;;0.82;;
39020;SDS011;25188;51.958;5.842;2023-07-13T01:53:24;6.78;;;1.70;;
39020;SDS011;25188;51.958;5.842;2023-07-13T01:55:50;9.23;;;1.38;;
39020;SDS011;25188;51.958;5.842;2023-07-13T01:58:15;9.57;;;1.10;;
39020;SDS011;25188;51.958;5.842;2023-07-13T02:00:41;12.02;;;1.33;;
39020;SDS011;25188;51.958;5.842;2023-07-13T02:03:07;8.18;;;1.33;;
39020;SDS011;25188;51.958;5.842;2023-07-13T02:05:32;8.07;;;1.60;;
39020;SDS011;25188;51.958;5.842;2023-07-13T02:07:58;7.15;;;1.20;;
39020;SDS011;25188;51.958;5.842;2023-07-13T02:10:24;5.63;;;1.05;;
39020;SDS011;25188;51.958;5.842;2023-07-13T02:12:50;7.75;;;1.60;;
39020;SDS011;25188;51.958;5.842;2023-07-13T02:15:16;7.20;;;1.33;;
39020;SDS011;25188;51.958;5.842;2023-07-13T02:17:42;8.32;;;1.63;;
39020;SDS011;25188;51.958;5.842;2023-07-13T02:20:08;13.55;;;1.55;;
39020;SDS011;25188;51.958;5.842;2023-07-13T02:22:34;9.77;;;2.03;;
39020;SDS011;25188;51.958;5.842;2023-07-13T02:25:00;15.13;;;2.17;;
39020;SDS011;25188;51.958;5.842;2023-07-13T02:27:26;7.57;;;1.08;;
39020;SDS011;25188;51.958;5.842;2023-07-13T02:29:52;6.55;;;1.48;;
39020;SDS011;25188;51.958;5.842;2023-07-13T02:32:18;12.57;;;1.88;;
39020;SDS011;25188;51.958;5.842;2023-07-13T02:34:44;7.68;;;1.35;;
39020;SDS011;25188;51.958;5.842;2023-07-13T02:37:09;6.57;;;1.60;;
39020;SDS011;25188;51.958;5.842;2023-07-13T02:39:35;8.95;;;1.73;;
39020;SDS011;25188;51.958;5.842;2023-07-13T02:42:01;4.32;;;1.38;;
39020;SDS011;25188;51.958;5.842;2023-07-13T02:44:27;5.20;;;1.45;;
39020;SDS011;25188;51.958;5.842;2023-07-13T02:46:52;11.07;;;2.00;;
39020;SDS011;25188;51.958;5.842;2023-07-13T02:49:18;5.78;;;1.45;;
39020;SDS011;25188;51.958;5.842;2023-07-13T02:51:44;10.00;;;1.90;;
39020;SDS011;25188;51.958;5.842;2023-07-13T02:54:09;6.50;;;1.85;;
39020;SDS011;25188;51.958;5.842;2023-07-13T02:56:36;12.13;;;1.67;;
39020;SDS011;25188;51.958;5.842;2023-07-13T02:59:03;7.03;;;1.60;;
39020;SDS011;25188;51.958;5.842;2023-07-13T03:01:29;7.47;;;1.88;;
39020;SDS011;25188;51.958;5.842;2023-07-13T03:03:59;11.50;;;2.58;;
39020;SDS011;25188;51.958;5.842;2023-07-13T03:06:25;7.55;;;1.48;;
39020;SDS011;25188;51.958;5.842;2023-07-13T03:08:54;5.78;;;1.40;;
39020;SDS011;25188;51.958;5.842;2023-07-13T03:11:20;9.00;;;1.90;;
39020;SDS011;25188;51.958;5.842;2023-07-13T03:13:46;7.88;;;1.85;;
39020;SDS011;25188;51.958;5.842;2023-07-13T03:16:12;7.50;;;2.00;;
39020;SDS011;25188;51.958;5.842;2023-07-13T03:18:41;7.55;;;2.40;;
39020;SDS011;25188;51.958;5.842;2023-07-13T03:21:06;6.60;;;1.50;;
39020;SDS011;25188;51.958;5.842;2023-07-13T03:23:32;8.68;;;1.98;;
39020;SDS011;25188;51.958;5.842;2023-07-13T03:26:05;7.82;;;1.95;;
39020;SDS011;25188;51.958;5.842;2023-07-13T03:28:33;7.85;;;2.00;;
39020;SDS011;25188;51.958;5.842;2023-07-13T03:31:03;7.80;;;1.77;;
39020;SDS011;25188;51.958;5.842;2023-07-13T03:33:40;5.82;;;1.58;;
39020;SDS011;25188;51.958;5.842;2023-07-13T03:36:06;6.93;;;2.00;;
39020;SDS011;25188;51.958;5.842;2023-07-13T03:38:38;8.43;;;1.67;;
39020;SDS011;25188;51.958;5.842;2023-07-13T03:41:03;7.53;;;1.52;;
39020;SDS011;25188;51.958;5.842;2023-07-13T03:43:29;7.13;;;2.05;;
39020;SDS011;25188;51.958;5.842;2023-07-13T03:45:55;6.78;;;1.85;;
39020;SDS011;25188;51.958;5.842;2023-07-13T03:48:20;8.30;;;2.05;;
39020;SDS011;25188;51.958;5.842;2023-07-13T03:50:47;12.50;;;2.60;;
39020;SDS011;25188;51.958;5.842;2023-07-13T03:53:14;5.82;;;2.00;;
39020;SDS011;25188;51.958;5.842;2023-07-13T03:55:40;10.07;;;2.30;;
39020;SDS011;25188;51.958;5.842;2023-07-13T04:00:52;8.30;;;2.10;;
39020;SDS011;25188;51.958;5.842;2023-07-13T04:03:18;11.90;;;2.70;;
39020;SDS011;25188;51.958;5.842;2023-07-13T04:05:44;8.80;;;2.20;;
39020;SDS011;25188;51.958;5.842;2023-07-13T04:08:09;5.75;;;1.92;;
39020;SDS011;25188;51.958;5.842;2023-07-13T04:10:35;6.05;;;1.92;;
39020;SDS011;25188;51.958;5.842;2023-07-13T04:13:00;7.05;;;1.92;;
39020;SDS011;25188;51.958;5.842;2023-07-13T04:15:28;8.32;;;2.10;;
39020;SDS011;25188;51.958;5.842;2023-07-13T04:17:55;7.32;;;1.90;;
39020;SDS011;25188;51.958;5.842;2023-07-13T04:20:21;9.55;;;2.65;;
39020;SDS011;25188;51.958;5.842;2023-07-13T04:22:47;7.25;;;2.13;;
39020;SDS011;25188;51.958;5.842;2023-07-13T04:25:12;10.02;;;3.22;;
39020;SDS011;25188;51.958;5.842;2023-07-13T04:27:38;9.57;;;2.22;;
39020;SDS011;25188;51.958;5.842;2023-07-13T04:30:05;10.32;;;2.10;;
39020;SDS011;25188;51.958;5.842;2023-07-13T04:32:31;8.55;;;1.85;;
39020;SDS011;25188;51.958;5.842;2023-07-13T04:34:57;8.63;;;2.65;;
39020;SDS011;25188;51.958;5.842;2023-07-13T04:37:24;9.10;;;2.42;;
39020;SDS011;25188;51.958;5.842;2023-07-13T04:39:51;8.32;;;2.83;;
39020;SDS011;25188;51.958;5.842;2023-07-13T04:42:17;7.32;;;2.67;;
39020;SDS011;25188;51.958;5.842;2023-07-13T04:44:49;10.02;;;3.10;;
39020;SDS011;25188;51.958;5.842;2023-07-13T04:47:16;9.43;;;2.57;;
39020;SDS011;25188;51.958;5.842;2023-07-13T04:49:42;8.70;;;2.53;;
39020;SDS011;25188;51.958;5.842;2023-07-13T04:52:08;12.77;;;3.03;;
39020;SDS011;25188;51.958;5.842;2023-07-13T04:54:34;8.15;;;2.30;;
39020;SDS011;25188;51.958;5.842;2023-07-13T04:57:00;14.60;;;3.65;;
39020;SDS011;25188;51.958;5.842;2023-07-13T04:59:26;12.35;;;3.20;;
39020;SDS011;25188;51.958;5.842;2023-07-13T05:01:52;9.35;;;3.10;;
39020;SDS011;25188;51.958;5.842;2023-07-13T05:04:18;9.55;;;3.17;;
39020;SDS011;25188;51.958;5.842;2023-07-13T05:06:44;8.07;;;2.80;;
39020;SDS011;25188;51.958;5.842;2023-07-13T05:09:09;9.50;;;2.90;;
39020;SDS011;25188;51.958;5.842;2023-07-13T05:11:35;11.60;;;3.40;;
39020;SDS011;25188;51.958;5.842;2023-07-13T05:14:01;13.30;;;3.92;;
39020;SDS011;25188;51.958;5.842;2023-07-13T05:16:27;6.82;;;2.70;;
39020;SDS011;25188;51.958;5.842;2023-07-13T05:18:53;7.85;;;2.60;;
39020;SDS011;25188;51.958;5.842;2023-07-13T05:21:19;13.57;;;2.78;;
39020;SDS011;25188;51.958;5.842;2023-07-13T05:23:45;9.77;;;3.10;;
39020;SDS011;25188;51.958;5.842;2023-07-13T05:26:11;11.57;;;3.50;;
39020;SDS011;25188;51.958;5.842;2023-07-13T05:28:37;18.58;;;4.30;;
39020;SDS011;25188;51.958;5.842;2023-07-13T05:31:03;14.02;;;3.17;;
39020;SDS011;25188;51.958;5.842;2023-07-13T05:33:29;12.57;;;3.55;;
39020;SDS011;25188;51.958;5.842;2023-07-13T05:35:55;12.60;;;3.58;;
39020;SDS011;25188;51.958;5.842;2023-07-13T05:38:21;14.77;;;3.80;;
39020;SDS011;25188;51.958;5.842;2023-07-13T05:40:47;8.85;;;3.30;;
39020;SDS011;25188;51.958;5.842;2023-07-13T05:43:13;7.80;;;3.00;;
39020;SDS011;25188;51.958;5.842;2023-07-13T05:45:40;15.07;;;3.67;;
39020;SDS011;25188;51.958;5.842;2023-07-13T05:48:06;12.82;;;4.13;;
39020;SDS011;25188;51.958;5.842;2023-07-13T05:50:31;13.77;;;3.75;;
39020;SDS011;25188;51.958;5.842;2023-07-13T05:52:57;11.90;;;4.13;;
39020;SDS011;25188;51.958;5.842;2023-07-13T05:55:23;13.48;;;4.50;;
39020;SDS011;25188;51.958;5.842;2023-07-13T05:57:49;18.85;;;5.47;;
39020;SDS011;25188;51.958;5.842;2023-07-13T06:00:16;18.63;;;6.15;;
39020;SDS011;25188;51.958;5.842;2023-07-13T06:02:41;18.25;;;6.28;;
39020;SDS011;25188;51.958;5.842;2023-07-13T06:05:07;15.13;;;5.22;;
39020;SDS011;25188;51.958;5.842;2023-07-13T06:07:33;16.88;;;5.68;;
39020;SDS011;25188;51.958;5.842;2023-07-13T06:09:59;17.42;;;7.70;;
39020;SDS011;25188;51.958;5.842;2023-07-13T06:12:25;14.88;;;6.63;;
39020;SDS011;25188;51.958;5.842;2023-07-13T06:14:51;18.42;;;7.55;;
39020;SDS011;25188;51.958;5.842;2023-07-13T06:17:17;17.25;;;6.45;;
39020;SDS011;25188;51.958;5.842;2023-07-13T06:19:48;18.33;;;7.22;;
39020;SDS011;25188;51.958;5.842;2023-07-13T06:22:14;15.02;;;7.40;;
39020;SDS011;25188;51.958;5.842;2023-07-13T06:24:39;17.83;;;7.60;;
39020;SDS011;25188;51.958;5.842;2023-07-13T06:27:05;17.23;;;7.05;;
39020;SDS011;25188;51.958;5.842;2023-07-13T06:29:31;18.92;;;8.63;;
39020;SDS011;25188;51.958;5.842;2023-07-13T06:31:56;22.52;;;8.65;;
39020;SDS011;25188;51.958;5.842;2023-07-13T06:34:22;16.60;;;7.85;;
39020;SDS011;25188;51.958;5.842;2023-07-13T06:36:48;18.52;;;8.02;;
39020;SDS011;25188;51.958;5.842;2023-07-13T06:39:13;14.15;;;6.63;;
39020;SDS011;25188;51.958;5.842;2023-07-13T06:41:39;20.48;;;8.43;;
39020;SDS011;25188;51.958;5.842;2023-07-13T06:44:05;18.85;;;9.18;;
39020;SDS011;25188;51.958;5.842;2023-07-13T06:46:31;16.30;;;8.77;;
39020;SDS011;25188;51.958;5.842;2023-07-13T06:48:57;18.55;;;11.45;;
39020;SDS011;25188;51.958;5.842;2023-07-13T06:51:23;21.35;;;11.38;;
39020;SDS011;25188;51.958;5.842;2023-07-13T06:53:48;17.98;;;9.88;;
39020;SDS011;25188;51.958;5.842;2023-07-13T06:56:15;22.23;;;9.32;;
39020;SDS011;25188;51.958;5.842;2023-07-13T06:58:41;23.80;;;10.80;;
39020;SDS011;25188;51.958;5.842;2023-07-13T07:01:06;20.98;;;8.10;;
39020;SDS011;25188;51.958;5.842;2023-07-13T07:03:32;15.05;;;8.13;;
39020;SDS011;25188;51.958;5.842;2023-07-13T07:06:01;18.73;;;9.30;;
39020;SDS011;25188;51.958;5.842;2023-07-13T07:08:33;17.77;;;8.52;;
39020;SDS011;25188;51.958;5.842;2023-07-13T07:10:59;21.92;;;8.75;;
39020;SDS011;25188;51.958;5.842;2023-07-13T07:13:24;17.60;;;9.23;;
39020;SDS011;25188;51.958;5.842;2023-07-13T07:15:50;21.02;;;9.30;;
39020;SDS011;25188;51.958;5.842;2023-07-13T07:18:17;20.10;;;10.10;;
39020;SDS011;25188;51.958;5.842;2023-07-13T07:20:42;17.15;;;9.25;;
39020;SDS011;25188;51.958;5.842;2023-07-13T07:23:08;15.15;;;7.70;;
39020;SDS011;25188;51.958;5.842;2023-07-13T07:25:33;20.50;;;8.43;;
39020;SDS011;25188;51.958;5.842;2023-07-13T07:28:02;16.13;;;8.27;;
39020;SDS011;25188;51.958;5.842;2023-07-13T07:30:28;17.73;;;8.85;;
39020;SDS011;25188;51.958;5.842;2023-07-13T07:32:53;22.02;;;10.57;;
39020;SDS011;25188;51.958;5.842;2023-07-13T07:35:19;16.42;;;8.15;;
39020;SDS011;25188;51.958;5.842;2023-07-13T07:37:45;20.45;;;9.30;;
39020;SDS011;25188;51.958;5.842;2023-07-13T07:40:10;20.10;;;9.50;;
39020;SDS011;25188;51.958;5.842;2023-07-13T07:42:36;14.32;;;8.43;;
39020;SDS011;25188;51.958;5.842;2023-07-13T07:45:02;17.50;;;8.82;;
39020;SDS011;25188;51.958;5.842;2023-07-13T07:47:27;16.88;;;9.63;;
39020;SDS011;25188;51.958;5.842;2023-07-13T07:49:53;19.23;;;9.77;;
39020;SDS011;25188;51.958;5.842;2023-07-13T07:52:19;19.48;;;9.88;;
39020;SDS011;25188;51.958;5.842;2023-07-13T07:54:44;19.27;;;9.65;;
39020;SDS011;25188;51.958;5.842;2023-07-13T07:57:10;16.58;;;9.00;;
39020;SDS011;25188;51.958;5.842;2023-07-13T07:59:36;18.60;;;9.73;;
39020;SDS011;25188;51.958;5.842;2023-07-13T08:02:02;18.08;;;9.20;;
39020;SDS011;25188;51.958;5.842;2023-07-13T08:04:28;15.40;;;8.73;;
39020;SDS011;25188;51.958;5.842;2023-07-13T08:06:54;18.10;;;10.73;;
39020;SDS011;25188;51.958;5.842;2023-07-13T08:09:21;16.38;;;9.50;;
39020;SDS011;25188;51.958;5.842;2023-07-13T08:11:47;15.25;;;9.52;;
39020;SDS011;25188;51.958;5.842;2023-07-13T08:14:12;13.25;;;7.70;;
39020;SDS011;25188;51.958;5.842;2023-07-13T08:16:38;16.55;;;9.30;;
39020;SDS011;25188;51.958;5.842;2023-07-13T08:19:04;15.30;;;8.60;;
39020;SDS011;25188;51.958;5.842;2023-07-13T08:21:31;11.77;;;6.88;;
39020;SDS011;25188;51.958;5.842;2023-07-13T08:23:56;15.85;;;8.05;;
39020;SDS011;25188;51.958;5.842;2023-07-13T08:26:22;19.70;;;9.75;;
39020;SDS011;25188;51.958;5.842;2023-07-13T08:28:48;13.65;;;7.55;;
39020;SDS011;25188;51.958;5.842;2023-07-13T08:31:13;15.25;;;7.78;;
39020;SDS011;25188;51.958;5.842;2023-07-13T08:33:39;13.32;;;8.02;;
39020;SDS011;25188;51.958;5.842;2023-07-13T08:36:06;15.77;;;7.53;;
39020;SDS011;25188;51.958;5.842;2023-07-13T08:38:32;13.85;;;7.35;;
39020;SDS011;25188;51.958;5.842;2023-07-13T08:40:58;15.10;;;7.93;;
39020;SDS011;25188;51.958;5.842;2023-07-13T08:43:28;17.02;;;6.88;;
39020;SDS011;25188;51.958;5.842;2023-07-13T08:46:05;12.93;;;6.75;;
39020;SDS011;25188;51.958;5.842;2023-07-13T08:48:41;11.65;;;5.75;;
39020;SDS011;25188;51.958;5.842;2023-07-13T08:51:59;10.65;;;5.47;;
39020;SDS011;25188;51.958;5.842;2023-07-13T08:54:19;11.80;;;6.97;;
39020;SDS011;25188;51.958;5.842;2023-07-13T08:56:54;14.88;;;9.20;;
39020;SDS011;25188;51.958;5.842;2023-07-13T08:59:23;15.43;;;7.78;;
39020;SDS011;25188;51.958;5.842;2023-07-13T09:04:49;12.25;;;6.55;;
39020;SDS011;25188;51.958;5.842;2023-07-13T09:07:29;13.73;;;4.72;;
39020;SDS011;25188;51.958;5.842;2023-07-13T09:15:30;11.23;;;5.00;;
39020;SDS011;25188;51.958;5.842;2023-07-13T09:18:08;12.32;;;5.10;;
39020;SDS011;25188;51.958;5.842;2023-07-13T09:23:30;10.85;;;5.03;;
39020;SDS011;25188;51.958;5.842;2023-07-13T09:26:04;11.27;;;4.18;;
39020;SDS011;25188;51.958;5.842;2023-07-13T09:28:37;10.10;;;4.68;;
39020;SDS011;25188;51.958;5.842;2023-07-13T09:31:07;13.27;;;5.32;;
39020;SDS011;25188;51.958;5.842;2023-07-13T09:33:40;13.75;;;4.97;;
39020;SDS011;25188;51.958;5.842;2023-07-13T09:36:25;12.20;;;4.82;;
39020;SDS011;25188;51.958;5.842;2023-07-13T09:38:58;9.73;;;3.47;;
39020;SDS011;25188;51.958;5.842;2023-07-13T09:44:33;8.52;;;3.83;;
39020;SDS011;25188;51.958;5.842;2023-07-13T09:47:02;9.73;;;3.85;;
39020;SDS011;25188;51.958;5.842;2023-07-13T09:49:35;12.95;;;4.50;;
39020;SDS011;25188;51.958;5.842;2023-07-13T09:52:03;9.30;;;4.60;;
39020;SDS011;25188;51.958;5.842;2023-07-13T09:54:32;12.88;;;4.30;;
39020;SDS011;25188;51.958;5.842;2023-07-13T09:57:00;8.07;;;3.35;;
39020;SDS011;25188;51.958;5.842;2023-07-13T09:59:33;6.30;;;3.63;;
39020;SDS011;25188;51.958;5.842;2023-07-13T10:02:01;8.18;;;3.83;;
39020;SDS011;25188;51.958;5.842;2023-07-13T10:04:33;8.00;;;3.17;;
39020;SDS011;25188;51.958;5.842;2023-07-13T10:07:06;7.47;;;2.78;;
39020;SDS011;25188;51.958;5.842;2023-07-13T10:09:33;8.32;;;3.42;;
39020;SDS011;25188;51.958;5.842;2023-07-13T10:12:00;8.75;;;3.80;;
39020;SDS011;25188;51.958;5.842;2023-07-13T10:14:26;7.45;;;3.10;;
39020;SDS011;25188;51.958;5.842;2023-07-13T10:17:00;9.98;;;4.22;;
39020;SDS011;25188;51.958;5.842;2023-07-13T10:19:29;7.93;;;3.40;;
39020;SDS011;25188;51.958;5.842;2023-07-13T10:21:58;9.30;;;3.53;;
39020;SDS011;25188;51.958;5.842;2023-07-13T10:24:29;10.40;;;3.03;;
39020;SDS011;25188;51.958;5.842;2023-07-13T10:27:05;10.27;;;3.83;;
39020;SDS011;25188;51.958;5.842;2023-07-13T10:32:15;9.05;;;3.47;;
39020;SDS011;25188;51.958;5.842;2023-07-13T10:34:41;7.30;;;2.60;;
39020;SDS011;25188;51.958;5.842;2023-07-13T10:37:20;8.82;;;2.63;;
39020;SDS011;25188;51.958;5.842;2023-07-13T10:39:50;8.10;;;3.00;;
39020;SDS011;25188;51.958;5.842;2023-07-13T10:42:20;14.68;;;3.53;;
39020;SDS011;25188;51.958;5.842;2023-07-13T10:44:53;12.57;;;5.20;;
39020;SDS011;25188;51.958;5.842;2023-07-13T10:47:18;11.55;;;5.70;;
39020;SDS011;25188;51.958;5.842;2023-07-13T10:49:44;12.07;;;4.65;;
39020;SDS011;25188;51.958;5.842;2023-07-13T10:55:30;9.32;;;4.07;;
39020;SDS011;25188;51.958;5.842;2023-07-13T10:58:40;7.70;;;3.35;;
39020;SDS011;25188;51.958;5.842;2023-07-13T11:03:33;10.48;;;4.05;;
39020;SDS011;25188;51.958;5.842;2023-07-13T11:06:18;9.95;;;5.10;;
39020;SDS011;25188;51.958;5.842;2023-07-13T11:08:59;11.05;;;4.20;;
39020;SDS011;25188;51.958;5.842;2023-07-13T11:12:09;7.38;;;3.10;;
39020;SDS011;25188;51.958;5.842;2023-07-13T11:17:32;9.63;;;3.55;;
39020;SDS011;25188;51.958;5.842;2023-07-13T11:22:45;7.95;;;2.67;;
39020;SDS011;25188;51.958;5.842;2023-07-13T11:30:41;6.90;;;1.83;;
39020;SDS011;25188;51.958;5.842;2023-07-13T11:38:39;3.83;;;1.00;;
39020;SDS011;25188;51.958;5.842;2023-07-13T11:41:30;4.40;;;1.27;;
39020;SDS011;25188;51.958;5.842;2023-07-13T11:44:33;2.90;;;0.85;;
39020;SDS011;25188;51.958;5.842;2023-07-13T11:46:55;4.18;;;1.00;;
39020;SDS011;25188;51.958;5.842;2023-07-13T11:49:26;3.38;;;0.88;;
39020;SDS011;25188;51.958;5.842;2023-07-13T11:51:55;5.00;;;1.20;;
39020;SDS011;25188;51.958;5.842;2023-07-13T11:54:28;8.10;;;1.67;;
39020;SDS011;25188;51.958;5.842;2023-07-13T11:56:57;5.60;;;1.67;;
39020;SDS011;25188;51.958;5.842;2023-07-13T11:59:26;6.18;;;1.42;;
39020;SDS011;25188;51.958;5.842;2023-07-13T12:01:54;5.72;;;1.50;;
39020;SDS011;25188;51.958;5.842;2023-07-13T12:04:23;5.82;;;2.15;;
39020;SDS011;25188;51.958;5.842;2023-07-13T12:06:54;5.32;;;1.98;;
39020;SDS011;25188;51.958;5.842;2023-07-13T12:09:28;5.63;;;1.95;;
39020;SDS011;25188;51.958;5.842;2023-07-13T12:11:54;6.63;;;1.80;;
39020;SDS011;25188;51.958;5.842;2023-07-13T12:14:23;5.57;;;1.67;;
39020;SDS011;25188;51.958;5.842;2023-07-13T12:16:51;5.72;;;1.70;;
39020;SDS011;25188;51.958;5.842;2023-07-13T12:19:19;4.75;;;1.45;;
39020;SDS011;25188;51.958;5.842;2023-07-13T12:21:47;4.78;;;1.70;;
39020;SDS011;25188;51.958;5.842;2023-07-13T12:24:17;5.70;;;1.63;;
39020;SDS011;25188;51.958;5.842;2023-07-13T12:26:45;6.38;;;1.90;;
39020;SDS011;25188;51.958;5.842;2023-07-13T12:29:16;6.25;;;1.90;;
39020;SDS011;25188;51.958;5.842;2023-07-13T12:31:43;4.38;;;1.42;;
39020;SDS011;25188;51.958;5.842;2023-07-13T12:34:16;7.32;;;1.50;;
39020;SDS011;25188;51.958;5.842;2023-07-13T12:37:16;4.50;;;1.30;;
39020;SDS011;25188;51.958;5.842;2023-07-13T12:39:38;2.75;;;1.10;;
39020;SDS011;25188;51.958;5.842;2023-07-13T12:42:24;5.50;;;1.35;;
39020;SDS011;25188;51.958;5.842;2023-07-13T12:45:30;4.97;;;1.20;;
39020;SDS011;25188;51.958;5.842;2023-07-13T12:47:57;4.78;;;1.20;;
39020;SDS011;25188;51.958;5.842;2023-07-13T12:50:50;8.77;;;1.60;;
39020;SDS011;25188;51.958;5.842;2023-07-13T12:53:20;4.47;;;1.27;;
39020;SDS011;25188;51.958;5.842;2023-07-13T12:55:56;4.32;;;1.42;;
39020;SDS011;25188;51.958;5.842;2023-07-13T12:58:31;6.90;;;1.60;;
39020;SDS011;25188;51.958;5.842;2023-07-13T13:01:01;4.90;;;1.38;;
39020;SDS011;25188;51.958;5.842;2023-07-13T13:06:06;3.80;;;1.40;;
39020;SDS011;25188;51.958;5.842;2023-07-13T13:08:47;4.22;;;1.10;;
39020;SDS011;25188;51.958;5.842;2023-07-13T13:11:15;4.45;;;1.05;;
39020;SDS011;25188;51.958;5.842;2023-07-13T13:13:41;4.45;;;1.10;;
39020;SDS011;25188;51.958;5.842;2023-07-13T13:18:44;3.67;;;0.75;;
39020;SDS011;25188;51.958;5.842;2023-07-13T13:21:10;3.33;;;0.95;;
39020;SDS011;25188;51.958;5.842;2023-07-13T13:23:36;4.90;;;1.10;;
39020;SDS011;25188;51.958;5.842;2023-07-13T13:26:02;3.28;;;0.90;;
39020;SDS011;25188;51.958;5.842;2023-07-13T13:28:30;2.70;;;0.80;;
39020;SDS011;25188;51.958;5.842;2023-07-13T13:30:57;5.15;;;1.10;;
39020;SDS011;25188;51.958;5.842;2023-07-13T13:33:23;6.18;;;1.00;;
39020;SDS011;25188;51.958;5.842;2023-07-13T13:35:48;5.78;;;0.90;;
39020;SDS011;25188;51.958;5.842;2023-07-13T13:38:15;5.50;;;1.33;;
39020;SDS011;25188;51.958;5.842;2023-07-13T13:40:44;8.82;;;1.38;;
39020;SDS011;25188;51.958;5.842;2023-07-13T13:43:17;2.63;;;0.98;;
39020;SDS011;25188;51.958;5.842;2023-07-13T13:45:45;5.28;;;1.05;;
39020;SDS011;25188;51.958;5.842;2023-07-13T13:48:15;3.88;;;1.08;;
39020;SDS011;25188;51.958;5.842;2023-07-13T13:50:43;5.03;;;1.00;;
39020;SDS011;25188;51.958;5.842;2023-07-13T13:53:10;4.50;;;1.25;;
39020;SDS011;25188;51.958;5.842;2023-07-13T13:55:37;5.07;;;1.10;;
39020;SDS011;25188;51.958;5.842;2023-07-13T13:58:03;5.32;;;0.82;;
39020;SDS011;25188;51.958;5.842;2023-07-13T14:00:29;3.85;;;1.00;;
39020;SDS011;25188;51.958;5.842;2023-07-13T14:02:55;5.13;;;1.23;;
39020;SDS011;25188;51.958;5.842;2023-07-13T14:05:23;5.03;;;1.05;;
39020;SDS011;25188;51.958;5.842;2023-07-13T14:07:53;4.65;;;1.00;;
39020;SDS011;25188;51.958;5.842;2023-07-13T14:10:19;3.83;;;0.88;;
39020;SDS011;25188;51.958;5.842;2023-07-13T14:12:47;3.80;;;0.95;;
39020;SDS011;25188;51.958;5.842;2023-07-13T14:15:21;3.00;;;1.00;;
39020;SDS011;25188;51.958;5.842;2023-07-13T14:17:55;2.35;;;0.75;;
39020;SDS011;25188;51.958;5.842;2023-07-13T14:20:23;4.10;;;0.90;;
39020;SDS011;25188;51.958;5.842;2023-07-13T14:22:50;2.35;;;0.73;;
39020;SDS011;25188;51.958;5.842;2023-07-13T14:25:17;7.30;;;1.30;;
39020;SDS011;25188;51.958;5.842;2023-07-13T14:27:44;4.78;;;1.10;;
39020;SDS011;25188;51.958;5.842;2023-07-13T14:30:21;4.28;;;1.00;;
39020;SDS011;25188;51.958;5.842;2023-07-13T14:32:47;3.65;;;1.48;;
39020;SDS011;25188;51.958;5.842;2023-07-13T14:35:14;3.35;;;0.93;;
39020;SDS011;25188;51.958;5.842;2023-07-13T14:37:43;3.80;;;1.08;;
39020;SDS011;25188;51.958;5.842;2023-07-13T14:40:14;2.75;;;0.80;;
39020;SDS011;25188;51.958;5.842;2023-07-13T14:42:41;5.85;;;1.30;;
39020;SDS011;25188;51.958;5.842;2023-07-13T14:45:12;3.72;;;0.70;;
39020;SDS011;25188;51.958;5.842;2023-07-13T14:47:41;5.82;;;1.00;;
39020;SDS011;25188;51.958;5.842;2023-07-13T14:50:12;2.20;;;0.77;;
39020;SDS011;25188;51.958;5.842;2023-07-13T14:52:38;3.40;;;1.15;;
39020;SDS011;25188;51.958;5.842;2023-07-13T14:55:07;4.40;;;0.98;;
39020;SDS011;25188;51.958;5.842;2023-07-13T14:57:35;3.05;;;0.73;;
39020;SDS011;25188;51.958;5.842;2023-07-13T15:00:00;5.30;;;1.20;;
39020;SDS011;25188;51.958;5.842;2023-07-13T15:02:27;3.35;;;0.90;;
39020;SDS011;25188;51.958;5.842;2023-07-13T15:04:55;6.40;;;1.50;;
39020;SDS011;25188;51.958;5.842;2023-07-13T15:07:21;4.82;;;1.02;;
39020;SDS011;25188;51.958;5.842;2023-07-13T15:09:48;4.57;;;1.00;;
39020;SDS011;25188;51.958;5.842;2023-07-13T15:12:14;4.03;;;1.10;;
39020;SDS011;25188;51.958;5.842;2023-07-13T15:14:39;3.65;;;0.82;;
39020;SDS011;25188;51.958;5.842;2023-07-13T15:17:08;3.42;;;1.10;;
39020;SDS011;25188;51.958;5.842;2023-07-13T15:19:56;3.58;;;0.80;;
39020;SDS011;25188;51.958;5.842;2023-07-13T15:22:22;5.20;;;0.90;;
39020;SDS011;25188;51.958;5.842;2023-07-13T15:24:48;4.03;;;0.90;;
39020;SDS011;25188;51.958;5.842;2023-07-13T15:27:14;4.20;;;1.20;;
39020;SDS011;25188;51.958;5.842;2023-07-13T15:29:39;4.43;;;1.33;;
39020;SDS011;25188;51.958;5.842;2023-07-13T15:32:16;7.15;;;1.40;;
39020;SDS011;25188;51.958;5.842;2023-07-13T15:34:44;2.75;;;1.02;;
39020;SDS011;25188;51.958;5.842;2023-07-13T15:37:14;4.53;;;1.23;;
39020;SDS011;25188;51.958;5.842;2023-07-13T15:39:45;3.13;;;1.10;;